Bulldog Sally — WDJ2058 — position and weather

sailwx.info

Track history (hours):
 
Tides and Currents Weather Stations Pressure Air Temp Water Temp Dewpoint Dewpoint Depression Visibility Wind Speed Wind Dir Waves Ship Positions

Bulldog Sally

Owner: Engel, Paul T, Malden Bridge, NY. More information available from US FCC via Universal Licensing System and Coast Guard Vessel Documentation Center.

Last reported at 2018-Jun-20 05:00 UTC. Time now 2018-Jun-20 05:19 UTC.
Position N 39°23' W 076°02'.

Length 17 m.

Type: Fishing. MMSI: 367597470.

Date/timePositionNaut miles runAvg speedWind from/ knotsBaromVisibWave heightAir tempDewpointWater temp
2018-Jun-20 05:00N 39°23' W 076°02'0 0.0
2018-Jun-20 04:30N 39°23' W 076°02'0 0.0
2018-Jun-20 03:59N 39°23' W 076°02'0 0.0
2018-Jun-20 03:30N 39°23' W 076°02'0 0.0
2018-Jun-20 02:59N 39°23' W 076°02'0 0.0
2018-Jun-20 02:30N 39°23' W 076°02'0 0.0
2018-Jun-20 02:00N 39°23' W 076°02'0 0.0
2018-Jun-20 01:30N 39°23' W 076°02'0 0.0
2018-Jun-20 01:00N 39°23' W 076°02'0 0.0
2018-Jun-20 00:30N 39°23' W 076°02'0 0.0
2018-Jun-20 00:00N 39°23' W 076°02'0 0.0
2018-Jun-19 23:30N 39°23' W 076°02'0 0.0
2018-Jun-19 23:00N 39°23' W 076°02'0 0.0
2018-Jun-19 22:30N 39°23' W 076°02'0 0.0
2018-Jun-19 22:00N 39°23' W 076°02'0 0.0
2018-Jun-19 21:30N 39°23' W 076°02'0 0.0
2018-Jun-19 21:00N 39°23' W 076°02'0 0.0
2018-Jun-19 20:30N 39°23' W 076°02'0 0.0
2018-Jun-19 20:00N 39°23' W 076°02'0 0.0
2018-Jun-19 19:30N 39°23' W 076°02'0 0.0
2018-Jun-19 19:00N 39°23' W 076°02'28 4.7
2018-Jun-19 12:58N 38°60' W 076°23'3 7.7
2018-Jun-19 12:30N 38°58' W 076°27'2 0.1
2018-Jun-18 11:31N 38°58' W 076°29'0 0.0
2018-Jun-18 10:52N 38°58' W 076°29'0 0.0
2018-Jun-18 10:28N 38°58' W 076°29'0 0.0
2018-Jun-18 09:07N 38°58' W 076°29'0 0.0
2018-Jun-18 08:58N 38°58' W 076°29'0 0.0
2018-Jun-18 08:30N 38°58' W 076°29'0 0.0
2018-Jun-18 08:00N 38°58' W 076°29'0 0.0
2018-Jun-18 07:29N 38°58' W 076°29'0 0.0
2018-Jun-18 06:59N 38°58' W 076°29'0 0.0
2018-Jun-18 06:28N 38°58' W 076°29'0 0.0
2018-Jun-18 06:00N 38°58' W 076°29'0 0.0
2018-Jun-18 05:30N 38°58' W 076°29'0 0.0
2018-Jun-18 04:57N 38°58' W 076°29'0 0.0
2018-Jun-18 04:29N 38°58' W 076°29'0 0.0
2018-Jun-18 03:57N 38°58' W 076°29'0 0.0
2018-Jun-18 03:29N 38°58' W 076°29'0 0.0
2018-Jun-18 03:00N 38°58' W 076°29'0 0.0
2018-Jun-18 02:26N 38°58' W 076°29'0 0.0
2018-Jun-18 01:48N 38°58' W 076°29'0 0.0
2018-Jun-18 01:30N 38°58' W 076°29'0 0.0
2018-Jun-18 00:59N 38°58' W 076°29'0 0.0
2018-Jun-18 00:30N 38°58' W 076°29'0 0.0
2018-Jun-17 23:59N 38°58' W 076°29'0 0.0
2018-Jun-17 23:30N 38°58' W 076°29'0 0.0
2018-Jun-17 23:00N 38°58' W 076°29'0 0.0
2018-Jun-17 22:30N 38°58' W 076°29'0 0.0
2018-Jun-17 22:00N 38°58' W 076°29'0 0.0
2018-Jun-17 21:30N 38°58' W 076°29'0 0.0
2018-Jun-17 21:00N 38°58' W 076°29'0 0.0
2018-Jun-17 20:30N 38°58' W 076°29'0 0.0
2018-Jun-17 20:00N 38°58' W 076°29'0 0.0
2018-Jun-17 19:29N 38°58' W 076°29'0 0.0
2018-Jun-17 18:59N 38°58' W 076°29'0 0.0
2018-Jun-17 18:27N 38°58' W 076°29'0 0.0
2018-Jun-17 18:00N 38°58' W 076°29'1 2.6
2018-Jun-17 17:30N 38°57' W 076°27'3 6.6
2018-Jun-17 17:00N 38°54' W 076°26'3 6.7
2018-Jun-17 16:30N 38°51' W 076°26'4 7.1
2018-Jun-17 16:00N 38°48' W 076°26'20 7.2
2018-Jun-17 13:12N 38°27' W 076°23'2 7.7
2018-Jun-17 13:00N 38°26' W 076°23'  
2018-Jun-14 10:52N 36°52' W 076°20'2 7.0
2018-Jun-14 10:30N 36°51' W 076°18'0 0.2
2018-Jun-14 10:00N 36°51' W 076°18'0 0.0
2018-Jun-14 09:30N 36°51' W 076°18'0 0.0
2018-Jun-14 09:00N 36°51' W 076°18'0 0.0
2018-Jun-14 08:30N 36°51' W 076°18'0 0.0
2018-Jun-14 08:00N 36°51' W 076°18'0 0.0
2018-Jun-14 07:30N 36°51' W 076°18'0 0.0
2018-Jun-14 07:00N 36°51' W 076°18'0 0.0
2018-Jun-14 06:30N 36°51' W 076°18'0 0.0
2018-Jun-14 06:00N 36°51' W 076°18'0 0.0
2018-Jun-14 05:30N 36°51' W 076°18'0 0.0
2018-Jun-14 05:00N 36°51' W 076°18'0 0.0
2018-Jun-14 04:30N 36°51' W 076°18'0 0.0
2018-Jun-14 04:00N 36°51' W 076°18'0 0.0
2018-Jun-14 03:23N 36°51' W 076°18'0 0.0
2018-Jun-14 02:58N 36°51' W 076°18'0 0.0
2018-Jun-14 02:30N 36°51' W 076°18'0 0.0
2018-Jun-14 01:55N 36°51' W 076°18'0 0.0
2018-Jun-14 01:26N 36°51' W 076°18'0 0.0
2018-Jun-14 00:59N 36°51' W 076°18'0 0.0
2018-Jun-14 00:30N 36°51' W 076°18'0 0.0
2018-Jun-13 23:59N 36°51' W 076°18'0 0.0
2018-Jun-13 23:29N 36°51' W 076°18'0 0.0
2018-Jun-13 23:00N 36°51' W 076°18'0 0.0
2018-Jun-13 22:30N 36°51' W 076°18'0 0.0
2018-Jun-13 21:51N 36°51' W 076°18'0 0.0
2018-Jun-13 21:28N 36°51' W 076°18'0 0.0
2018-Jun-13 20:59N 36°51' W 076°18'0 0.0
2018-Jun-13 20:30N 36°51' W 076°18'0 0.0
2018-Jun-13 19:59N 36°51' W 076°18'0 0.0
2018-Jun-13 19:28N 36°51' W 076°18'0 0.0
2018-Jun-13 19:00N 36°51' W 076°18'0 0.0
2018-Jun-13 18:30N 36°51' W 076°18'0 0.0
2018-Jun-13 17:58N 36°51' W 076°18'0 0.0
2018-Jun-13 17:29N 36°51' W 076°18'0 0.0
2018-Jun-13 17:00N 36°51' W 076°18'0 0.0
2018-Jun-13 16:30N 36°51' W 076°18'0 0.0
2018-Jun-13 16:00N 36°51' W 076°18'0 0.0
2018-Jun-13 15:30N 36°51' W 076°18'1 2.6
2018-Jun-13 14:59N 36°49' W 076°17'2 3.1
2018-Jun-13 14:30N 36°48' W 076°18'3 4.9
2018-Jun-13 13:59N 36°45' W 076°18'3 5.6
2018-Jun-13 13:30N 36°44' W 076°15'1 1.0
2018-Jun-13 12:32N 36°43' W 076°14'0 0.0
2018-Jun-13 12:23N 36°43' W 076°14'0 0.0
2018-Jun-13 12:00N 36°43' W 076°14'0 0.0
2018-Jun-13 11:28N 36°43' W 076°14'0 0.0
2018-Jun-13 10:58N 36°43' W 076°14'0 0.0
2018-Jun-13 10:30N 36°43' W 076°14'0 0.0
2018-Jun-13 09:48N 36°43' W 076°14'0 0.0
2018-Jun-13 09:15N 36°43' W 076°14'0 0.0
2018-Jun-13 09:00N 36°43' W 076°14'0 0.0
2018-Jun-13 08:29N 36°43' W 076°14'0 0.0
2018-Jun-13 07:59N 36°43' W 076°14'0 0.0
2018-Jun-13 07:29N 36°43' W 076°14'0 0.0
2018-Jun-13 04:49N 36°43' W 076°14'0 0.0
2018-Jun-13 04:25N 36°43' W 076°14'0 0.0
2018-Jun-13 03:15N 36°43' W 076°14'0 0.0
2018-Jun-13 02:21N 36°43' W 076°14'0 0.0
2018-Jun-13 01:59N 36°43' W 076°14'0 0.0
2018-Jun-13 01:14N 36°43' W 076°14'0 0.0
2018-Jun-13 00:52N 36°43' W 076°14'0 0.0
2018-Jun-13 00:24N 36°43' W 076°14'0 0.0
2018-Jun-12 23:54N 36°43' W 076°14'0 0.0
2018-Jun-12 23:25N 36°43' W 076°14'0 0.0
2018-Jun-12 22:55N 36°43' W 076°14'0 0.0
2018-Jun-12 22:04N 36°43' W 076°14'0 0.0
2018-Jun-12 20:41N 36°43' W 076°14'0 0.0
2018-Jun-12 19:26N 36°43' W 076°14'0 0.0
2018-Jun-12 18:58N 36°43' W 076°14'  
2018-Jun-10 10:17N 34°56' W 076°39'0 0.1
2018-Jun-10 09:59N 34°56' W 076°39'0 0.0
2018-Jun-10 09:31N 34°56' W 076°39'0 0.0
2018-Jun-10 09:00N 34°56' W 076°39'0 0.0
2018-Jun-10 08:30N 34°56' W 076°39'0 0.0
2018-Jun-10 07:44N 34°56' W 076°39'0 0.0
2018-Jun-10 07:30N 34°56' W 076°39'  
Track history (hours):
 
Tides and Currents Weather Stations Pressure Air Temp Water Temp Dewpoint Dewpoint Depression Visibility Wind Speed Wind Dir Waves Ship Positions

Bulldog Sally

Owner: Engel, Paul T, Malden Bridge, NY. More information available from US FCC via Universal Licensing System and Coast Guard Vessel Documentation Center.

Last reported at 2018-Jun-20 05:00 UTC. Time now 2018-Jun-20 05:19 UTC.
Position N 39°23' W 076°02'.

Length 17 m.

Type: Fishing. MMSI: 367597470.

Date/timePositionNaut miles runAvg speedWind from/ knotsBaromVisibWave heightAir tempDewpointWater temp
2018-Jun-20 05:00N 39°23' W 076°02'0 0.0
2018-Jun-20 04:30N 39°23' W 076°02'0 0.0
2018-Jun-20 03:59N 39°23' W 076°02'0 0.0
2018-Jun-20 03:30N 39°23' W 076°02'0 0.0
2018-Jun-20 02:59N 39°23' W 076°02'0 0.0
2018-Jun-20 02:30N 39°23' W 076°02'0 0.0
2018-Jun-20 02:00N 39°23' W 076°02'0 0.0
2018-Jun-20 01:30N 39°23' W 076°02'0 0.0
2018-Jun-20 01:00N 39°23' W 076°02'0 0.0
2018-Jun-20 00:30N 39°23' W 076°02'0 0.0
2018-Jun-20 00:00N 39°23' W 076°02'0 0.0
2018-Jun-19 23:30N 39°23' W 076°02'0 0.0
2018-Jun-19 23:00N 39°23' W 076°02'0 0.0
2018-Jun-19 22:30N 39°23' W 076°02'0 0.0
2018-Jun-19 22:00N 39°23' W 076°02'0 0.0
2018-Jun-19 21:30N 39°23' W 076°02'0 0.0
2018-Jun-19 21:00N 39°23' W 076°02'0 0.0
2018-Jun-19 20:30N 39°23' W 076°02'0 0.0
2018-Jun-19 20:00N 39°23' W 076°02'0 0.0
2018-Jun-19 19:30N 39°23' W 076°02'0 0.0
2018-Jun-19 19:00N 39°23' W 076°02'28 4.7
2018-Jun-19 12:58N 38°60' W 076°23'3 7.7
2018-Jun-19 12:30N 38°58' W 076°27'2 0.1
2018-Jun-18 11:31N 38°58' W 076°29'0 0.0
2018-Jun-18 10:52N 38°58' W 076°29'0 0.0
2018-Jun-18 10:28N 38°58' W 076°29'0 0.0
2018-Jun-18 09:07N 38°58' W 076°29'0 0.0
2018-Jun-18 08:58N 38°58' W 076°29'0 0.0
2018-Jun-18 08:30N 38°58' W 076°29'0 0.0
2018-Jun-18 08:00N 38°58' W 076°29'0 0.0
2018-Jun-18 07:29N 38°58' W 076°29'0 0.0
2018-Jun-18 06:59N 38°58' W 076°29'0 0.0
2018-Jun-18 06:28N 38°58' W 076°29'0 0.0
2018-Jun-18 06:00N 38°58' W 076°29'0 0.0
2018-Jun-18 05:30N 38°58' W 076°29'0 0.0
2018-Jun-18 04:57N 38°58' W 076°29'0 0.0
2018-Jun-18 04:29N 38°58' W 076°29'0 0.0
2018-Jun-18 03:57N 38°58' W 076°29'0 0.0
2018-Jun-18 03:29N 38°58' W 076°29'0 0.0
2018-Jun-18 03:00N 38°58' W 076°29'0 0.0
2018-Jun-18 02:26N 38°58' W 076°29'0 0.0
2018-Jun-18 01:48N 38°58' W 076°29'0 0.0
2018-Jun-18 01:30N 38°58' W 076°29'0 0.0
2018-Jun-18 00:59N 38°58' W 076°29'0 0.0
2018-Jun-18 00:30N 38°58' W 076°29'0 0.0
2018-Jun-17 23:59N 38°58' W 076°29'0 0.0
2018-Jun-17 23:30N 38°58' W 076°29'0 0.0
2018-Jun-17 23:00N 38°58' W 076°29'0 0.0
2018-Jun-17 22:30N 38°58' W 076°29'0 0.0
2018-Jun-17 22:00N 38°58' W 076°29'0 0.0
2018-Jun-17 21:30N 38°58' W 076°29'0 0.0
2018-Jun-17 21:00N 38°58' W 076°29'0 0.0
2018-Jun-17 20:30N 38°58' W 076°29'0 0.0
2018-Jun-17 20:00N 38°58' W 076°29'0 0.0
2018-Jun-17 19:29N 38°58' W 076°29'0 0.0
2018-Jun-17 18:59N 38°58' W 076°29'0 0.0
2018-Jun-17 18:27N 38°58' W 076°29'0 0.0
2018-Jun-17 18:00N 38°58' W 076°29'1 2.6
2018-Jun-17 17:30N 38°57' W 076°27'3 6.6
2018-Jun-17 17:00N 38°54' W 076°26'3 6.7
2018-Jun-17 16:30N 38°51' W 076°26'4 7.1
2018-Jun-17 16:00N 38°48' W 076°26'20 7.2
2018-Jun-17 13:12N 38°27' W 076°23'2 7.7
2018-Jun-17 13:00N 38°26' W 076°23'  
2018-Jun-14 10:52N 36°52' W 076°20'2 7.0
2018-Jun-14 10:30N 36°51' W 076°18'0 0.2
2018-Jun-14 10:00N 36°51' W 076°18'0 0.0
2018-Jun-14 09:30N 36°51' W 076°18'0 0.0
2018-Jun-14 09:00N 36°51' W 076°18'0 0.0
2018-Jun-14 08:30N 36°51' W 076°18'0 0.0
2018-Jun-14 08:00N 36°51' W 076°18'0 0.0
2018-Jun-14 07:30N 36°51' W 076°18'0 0.0
2018-Jun-14 07:00N 36°51' W 076°18'0 0.0
2018-Jun-14 06:30N 36°51' W 076°18'0 0.0
2018-Jun-14 06:00N 36°51' W 076°18'0 0.0
2018-Jun-14 05:30N 36°51' W 076°18'0 0.0
2018-Jun-14 05:00N 36°51' W 076°18'0 0.0
2018-Jun-14 04:30N 36°51' W 076°18'0 0.0
2018-Jun-14 04:00N 36°51' W 076°18'0 0.0
2018-Jun-14 03:23N 36°51' W 076°18'0 0.0
2018-Jun-14 02:58N 36°51' W 076°18'0 0.0
2018-Jun-14 02:30N 36°51' W 076°18'0 0.0
2018-Jun-14 01:55N 36°51' W 076°18'0 0.0
2018-Jun-14 01:26N 36°51' W 076°18'0 0.0
2018-Jun-14 00:59N 36°51' W 076°18'0 0.0
2018-Jun-14 00:30N 36°51' W 076°18'0 0.0
2018-Jun-13 23:59N 36°51' W 076°18'0 0.0
2018-Jun-13 23:29N 36°51' W 076°18'0 0.0
2018-Jun-13 23:00N 36°51' W 076°18'0 0.0
2018-Jun-13 22:30N 36°51' W 076°18'0 0.0
2018-Jun-13 21:51N 36°51' W 076°18'0 0.0
2018-Jun-13 21:28N 36°51' W 076°18'0 0.0
2018-Jun-13 20:59N 36°51' W 076°18'0 0.0
2018-Jun-13 20:30N 36°51' W 076°18'0 0.0
2018-Jun-13 19:59N 36°51' W 076°18'0 0.0
2018-Jun-13 19:28N 36°51' W 076°18'0 0.0
2018-Jun-13 19:00N 36°51' W 076°18'0 0.0
2018-Jun-13 18:30N 36°51' W 076°18'0 0.0
2018-Jun-13 17:58N 36°51' W 076°18'0 0.0
2018-Jun-13 17:29N 36°51' W 076°18'0 0.0
2018-Jun-13 17:00N 36°51' W 076°18'0 0.0
2018-Jun-13 16:30N 36°51' W 076°18'0 0.0
2018-Jun-13 16:00N 36°51' W 076°18'0 0.0
2018-Jun-13 15:30N 36°51' W 076°18'1 2.6
2018-Jun-13 14:59N 36°49' W 076°17'2 3.1
2018-Jun-13 14:30N 36°48' W 076°18'3 4.9
2018-Jun-13 13:59N 36°45' W 076°18'3 5.6
2018-Jun-13 13:30N 36°44' W 076°15'1 1.0
2018-Jun-13 12:32N 36°43' W 076°14'0 0.0
2018-Jun-13 12:23N 36°43' W 076°14'0 0.0
2018-Jun-13 12:00N 36°43' W 076°14'0 0.0
2018-Jun-13 11:28N 36°43' W 076°14'0 0.0
2018-Jun-13 10:58N 36°43' W 076°14'0 0.0
2018-Jun-13 10:30N 36°43' W 076°14'0 0.0
2018-Jun-13 09:48N 36°43' W 076°14'0 0.0
2018-Jun-13 09:15N 36°43' W 076°14'0 0.0
2018-Jun-13 09:00N 36°43' W 076°14'0 0.0
2018-Jun-13 08:29N 36°43' W 076°14'0 0.0
2018-Jun-13 07:59N 36°43' W 076°14'0 0.0
2018-Jun-13 07:29N 36°43' W 076°14'0 0.0
2018-Jun-13 04:49N 36°43' W 076°14'0 0.0
2018-Jun-13 04:25N 36°43' W 076°14'0 0.0
2018-Jun-13 03:15N 36°43' W 076°14'0 0.0
2018-Jun-13 02:21N 36°43' W 076°14'0 0.0
2018-Jun-13 01:59N 36°43' W 076°14'0 0.0
2018-Jun-13 01:14N 36°43' W 076°14'0 0.0
2018-Jun-13 00:52N 36°43' W 076°14'0 0.0
2018-Jun-13 00:24N 36°43' W 076°14'0 0.0
2018-Jun-12 23:54N 36°43' W 076°14'0 0.0
2018-Jun-12 23:25N 36°43' W 076°14'0 0.0
2018-Jun-12 22:55N 36°43' W 076°14'0 0.0
2018-Jun-12 22:04N 36°43' W 076°14'0 0.0
2018-Jun-12 20:41N 36°43' W 076°14'0 0.0
2018-Jun-12 19:26N 36°43' W 076°14'0 0.0
2018-Jun-12 18:58N 36°43' W 076°14'  
2018-Jun-10 10:17N 34°56' W 076°39'0 0.1
2018-Jun-10 09:59N 34°56' W 076°39'0 0.0
2018-Jun-10 09:31N 34°56' W 076°39'0 0.0
2018-Jun-10 09:00N 34°56' W 076°39'0 0.0
2018-Jun-10 08:30N 34°56' W 076°39'0 0.0
2018-Jun-10 07:44N 34°56' W 076°39'0 0.0
2018-Jun-10 07:30N 34°56' W 076°39'  

Dump ship's entire track history